Time;durP1;ratioP1;P1;durP2;ratioP2;P2;SDS_P1;SDS_P2;PMS_P1;PMS_P2;Temp;Humidity;BMP_temperature;BMP_pressure;BME280_temperature;BME280_humidity;BME280_pressure;Samples;Min_cycle;Max_cycle;Signal;HPM_P1;HPM_P2
2022/10/20 00:00:48;;;;;;;4.57;3.78;;;19.30;99.90;;;;;;4147555;28;20708;-74
2022/10/20 00:02:50;;;;;;;4.45;3.83;;;19.20;99.90;;;;;;4140829;28;20619;-74
2022/10/20 00:04:53;;;;;;;5.28;4.13;;;19.30;99.90;;;;;;4147673;28;20268;-74
2022/10/20 00:06:56;;;;;;;3.97;3.45;;;19.30;99.90;;;;;;4147734;28;20272;-74
2022/10/20 00:09:01;;;;;;;4.57;3.22;;;19.20;99.90;;;;;;4142655;28;20279;-74
2022/10/20 00:11:03;;;;;;;5.03;3.20;;;19.20;99.90;;;;;;4147268;28;20631;-73
2022/10/20 00:13:06;;;;;;;5.53;3.90;;;19.20;99.90;;;;;;4147716;28;20225;-74
2022/10/20 00:15:09;;;;;;;4.00;3.63;;;19.20;99.90;;;;;;4143297;28;20217;-74
2022/10/20 00:17:11;;;;;;;3.80;3.35;;;19.20;99.90;;;;;;4147168;28;20232;-74
2022/10/20 00:19:13;;;;;;;4.13;3.55;;;19.20;99.90;;;;;;4146452;28;20279;-74
2022/10/20 00:21:18;;;;;;;4.32;3.92;;;19.30;99.90;;;;;;4143821;28;20677;-74
2022/10/20 00:23:23;;;;;;;4.07;3.42;;;19.20;99.90;;;;;;4147335;28;20225;-74
2022/10/20 00:25:25;;;;;;;3.28;2.97;;;19.20;99.90;;;;;;4140247;28;20212;-74
2022/10/20 00:27:27;;;;;;;3.58;3.28;;;19.20;99.90;;;;;;4147200;28;20221;-74
2022/10/20 00:29:30;;;;;;;4.10;3.70;;;19.20;99.90;;;;;;4147184;28;20244;-73
2022/10/20 00:31:32;;;;;;;4.25;3.85;;;19.20;99.90;;;;;;4140812;28;20293;-73
2022/10/20 00:33:35;;;;;;;3.65;3.35;;;19.20;99.90;;;;;;4136437;28;20267;-74
2022/10/20 00:35:39;;;;;;;3.70;3.40;;;19.20;99.90;;;;;;4142834;28;20249;-74
2022/10/20 00:37:41;;;;;;;4.05;3.60;;;19.20;99.90;;;;;;4138724;28;20217;-74
2022/10/20 00:39:44;;;;;;;4.20;3.80;;;19.20;99.90;;;;;;4147038;28;20223;-74
2022/10/20 00:41:47;;;;;;;4.10;3.55;;;19.20;99.90;;;;;;4147618;28;20224;-74
2022/10/20 00:43:52;;;;;;;4.00;3.58;;;19.20;99.90;;;;;;4142703;28;20217;-73
2022/10/20 00:45:57;;;;;;;3.50;3.20;;;19.20;99.90;;;;;;4146595;28;20315;-74
2022/10/20 00:48:04;;;;;;;3.92;3.50;;;19.20;99.90;;;;;;4142116;28;20561;-74
2022/10/20 00:50:11;;;;;;;3.60;3.30;;;19.20;99.90;;;;;;4139729;28;20619;-74
2022/10/20 00:52:17;;;;;;;4.65;3.70;;;19.20;99.90;;;;;;4146714;28;20232;-74
2022/10/20 00:54:23;;;;;;;3.70;3.35;;;19.20;99.90;;;;;;4144532;28;20575;-74
2022/10/20 00:56:27;;;;;;;3.40;3.10;;;19.20;99.90;;;;;;4143717;28;20271;-74
2022/10/20 00:58:29;;;;;;;3.40;2.90;;;19.20;99.90;;;;;;4146750;28;20224;-74
2022/10/20 01:00:32;;;;;;;3.90;3.38;;;19.20;99.90;;;;;;4143679;28;20288;-74
2022/10/20 01:02:34;;;;;;;3.53;3.22;;;19.20;99.90;;;;;;4143584;28;20220;-74
2022/10/20 01:04:37;;;;;;;4.00;3.20;;;19.10;99.90;;;;;;4146746;28;20229;-74
2022/10/20 01:06:40;;;;;;;4.05;3.60;;;19.10;99.90;;;;;;4142708;28;20276;-73
2022/10/20 01:08:42;;;;;;;3.47;3.15;;;19.20;99.90;;;;;;4144953;28;20236;-74
2022/10/20 01:10:51;;;;;;;3.83;3.50;;;19.20;99.90;;;;;;4146662;28;20241;-74
2022/10/20 01:13:01;;;;;;;4.28;3.78;;;19.10;99.90;;;;;;4142519;28;20216;-74
2022/10/20 01:15:10;;;;;;;3.67;3.33;;;19.20;99.90;;;;;;4146857;28;20665;-74
2022/10/20 01:17:22;;;;;;;4.25;3.85;;;19.20;99.90;;;;;;4134804;28;20274;-74
2022/10/20 01:19:57;;;;;;;3.92;3.20;;;19.10;99.90;;;;;;4137510;28;20303;-74
2022/10/20 01:22:14;;;;;;;3.92;3.60;;;19.10;99.90;;;;;;4144908;28;20264;-74
2022/10/20 01:24:58;;;;;;;3.45;3.10;;;19.20;99.90;;;;;;4141207;28;20210;-74
2022/10/20 01:27:31;;;;;;;3.63;3.33;;;19.10;99.90;;;;;;4095172;28;20234;-74
2022/10/20 01:29:37;;;;;;;4.18;3.75;;;19.20;99.90;;;;;;4129502;28;20714;-74
2022/10/20 01:31:44;;;;;;;3.92;3.50;;;19.10;99.90;;;;;;4144734;28;20213;-74
2022/10/20 01:33:54;;;;;;;3.63;3.10;;;19.10;99.90;;;;;;4146346;28;20279;-74
2022/10/20 01:36:02;;;;;;;4.55;3.10;;;19.10;99.90;;;;;;4140527;28;20263;-73
2022/10/20 01:38:13;;;;;;;4.60;3.38;;;19.10;99.90;;;;;;4145975;28;20224;-74
2022/10/20 01:40:21;;;;;;;4.53;3.60;;;19.10;99.90;;;;;;4137575;28;20623;-74
2022/10/20 01:42:26;;;;;;;5.18;3.55;;;19.10;99.90;;;;;;4140694;28;20719;-74
2022/10/20 01:44:31;;;;;;;3.95;3.55;;;19.10;99.90;;;;;;4145809;28;20237;-74
2022/10/20 01:46:35;;;;;;;4.13;3.22;;;19.10;99.90;;;;;;4143951;28;21114;-74
2022/10/20 01:48:39;;;;;;;3.50;3.20;;;19.10;99.90;;;;;;4140271;28;20217;-73
2022/10/20 01:50:42;;;;;;;4.88;3.70;;;19.10;99.90;;;;;;4145775;28;20290;-74
2022/10/20 01:52:44;;;;;;;3.47;3.13;;;19.10;99.90;;;;;;4142230;28;20257;-73
2022/10/20 01:54:47;;;;;;;3.97;3.33;;;19.10;99.90;;;;;;4143957;28;20228;-74
2022/10/20 01:56:59;;;;;;;4.38;3.55;;;19.10;99.90;;;;;;4145639;28;20221;-74
2022/10/20 01:59:27;;;;;;;4.05;3.55;;;19.10;99.90;;;;;;4140366;28;20324;-74
2022/10/20 02:01:45;;;;;;;3.55;3.17;;;19.10;99.90;;;;;;4132752;28;20217;-74
2022/10/20 02:03:53;;;;;;;4.45;3.40;;;19.10;99.90;;;;;;4142899;28;20275;-74
2022/10/20 02:06:08;;;;;;;4.28;3.33;;;19.10;99.90;;;;;;4129374;28;20264;-74
2022/10/20 02:08:14;;;;;;;4.15;3.45;;;19.10;99.90;;;;;;4129982;28;20221;-74
2022/10/20 02:10:20;;;;;;;4.00;3.40;;;19.10;99.90;;;;;;4127751;28;20263;-74
2022/10/20 02:12:27;;;;;;;3.70;3.17;;;19.10;99.90;;;;;;4127995;28;20272;-74
2022/10/20 02:14:32;;;;;;;3.95;3.17;;;19.10;99.90;;;;;;4131774;28;20264;-74
2022/10/20 02:16:40;;;;;;;3.33;3.03;;;19.10;99.90;;;;;;4127119;28;20225;-74
2022/10/20 02:18:43;;;;;;;3.67;3.28;;;19.10;99.90;;;;;;4130562;28;20256;-74
2022/10/20 02:20:50;;;;;;;3.30;3.00;;;19.10;99.90;;;;;;4123272;28;20273;-74
2022/10/20 02:22:53;;;;;;;4.22;3.13;;;19.10;99.90;;;;;;4128492;28;20665;-73
2022/10/20 02:24:56;;;;;;;3.38;3.08;;;19.10;99.90;;;;;;4140575;28;20263;-74
2022/10/20 02:27:02;;;;;;;3.33;3.03;;;19.10;99.90;;;;;;4140270;28;20259;-74
2022/10/20 02:29:10;;;;;;;3.50;3.20;;;19.10;99.90;;;;;;4124607;28;20615;-74
2022/10/20 02:31:13;;;;;;;3.92;3.15;;;19.10;99.90;;;;;;4129232;28;20248;-74
2022/10/20 02:33:17;;;;;;;4.15;3.30;;;19.10;99.90;;;;;;4128468;28;20225;-74
2022/10/20 02:35:26;;;;;;;3.97;3.55;;;19.10;99.90;;;;;;4125281;28;20218;-74
2022/10/20 02:37:28;;;;;;;3.45;3.15;;;19.10;99.90;;;;;;4129969;28;20221;-74
2022/10/20 02:39:30;;;;;;;3.72;3.30;;;19.00;99.90;;;;;;4118675;28;20280;-74
2022/10/20 02:41:33;;;;;;;4.20;3.35;;;19.10;99.90;;;;;;4127597;28;20264;-74
2022/10/20 02:43:35;;;;;;;4.40;3.35;;;19.10;99.90;;;;;;4129924;28;20368;-74
2022/10/20 02:45:37;;;;;;;4.03;3.60;;;19.10;99.90;;;;;;4124133;28;20288;-74
2022/10/20 02:47:40;;;;;;;3.70;3.40;;;19.00;99.90;;;;;;4129631;28;20264;-74
2022/10/20 02:49:43;;;;;;;3.80;3.38;;;19.10;99.90;;;;;;4129518;28;20567;-74
2022/10/20 02:51:45;;;;;;;4.00;3.28;;;19.10;99.90;;;;;;4126533;28;20245;-74
2022/10/20 02:53:48;;;;;;;3.92;3.45;;;19.10;99.90;;;;;;4129690;28;20625;-74
2022/10/20 02:55:51;;;;;;;4.25;3.40;;;19.10;99.90;;;;;;4131662;28;20229;-74
2022/10/20 02:57:53;;;;;;;3.53;3.22;;;19.00;99.90;;;;;;4129262;28;20217;-74
2022/10/20 02:59:55;;;;;;;3.50;3.20;;;19.10;99.90;;;;;;4130868;28;20360;-74
2022/10/20 03:01:58;;;;;;;3.80;3.40;;;19.00;99.90;;;;;;4149052;28;20625;-74
2022/10/20 03:04:00;;;;;;;6.25;3.00;;;19.00;99.90;;;;;;4144029;28;20221;-74
2022/10/20 03:06:09;;;;;;;4.45;3.58;;;19.00;99.90;;;;;;4148577;28;20217;-74
2022/10/20 03:08:12;;;;;;;4.45;3.63;;;19.00;99.90;;;;;;4142086;28;20267;-74
2022/10/20 03:10:14;;;;;;;4.25;3.40;;;19.00;99.90;;;;;;4146109;28;20229;-74
2022/10/20 03:12:16;;;;;;;3.72;3.10;;;19.00;99.90;;;;;;4148253;28;20272;-74
2022/10/20 03:14:19;;;;;;;4.03;3.67;;;19.00;99.90;;;;;;4143701;28;20268;-74
2022/10/20 03:16:21;;;;;;;3.45;3.10;;;19.00;99.90;;;;;;4147245;28;20220;-74
2022/10/20 03:18:23;;;;;;;5.43;3.55;;;19.00;99.90;;;;;;4148166;28;20225;-74
2022/10/20 03:20:26;;;;;;;3.33;3.00;;;19.00;99.90;;;;;;4143077;28;20217;-74
2022/10/20 03:22:29;;;;;;;4.60;3.40;;;19.00;99.90;;;;;;4148305;28;20210;-74
2022/10/20 03:24:32;;;;;;;4.00;3.60;;;19.00;99.90;;;;;;4148727;28;20225;-74
2022/10/20 03:26:34;;;;;;;4.78;3.28;;;19.00;99.90;;;;;;4142509;28;20297;-74
2022/10/20 03:28:36;;;;;;;3.58;2.88;;;19.00;99.90;;;;;;4147923;28;20221;-74
2022/10/20 03:30:39;;;;;;;3.25;2.95;;;19.00;99.90;;;;;;4147927;28;20272;-74
2022/10/20 03:32:41;;;;;;;4.78;4.03;;;19.00;99.90;;;;;;4142163;28;20213;-75
2022/10/20 03:34:43;;;;;;;3.90;3.50;;;19.00;99.90;;;;;;4148593;28;20233;-74
2022/10/20 03:36:46;;;;;;;3.30;3.00;;;19.00;99.90;;;;;;4147885;28;20264;-75
2022/10/20 03:38:49;;;;;;;3.65;3.35;;;19.00;99.90;;;;;;4136936;28;20226;-75
2022/10/20 03:40:52;;;;;;;3.70;3.35;;;19.00;99.90;;;;;;4147980;28;20221;-75
2022/10/20 03:42:54;;;;;;;3.15;2.72;;;19.00;99.90;;;;;;4146320;28;20229;-75
2022/10/20 03:44:56;;;;;;;3.78;3.47;;;19.00;99.90;;;;;;4145330;28;20273;-75
2022/10/20 03:46:59;;;;;;;3.38;3.08;;;19.00;99.90;;;;;;4148238;28;20244;-75
2022/10/20 03:49:01;;;;;;;4.00;3.60;;;19.00;99.90;;;;;;4143857;28;20283;-75
2022/10/20 03:51:05;;;;;;;4.07;3.45;;;19.00;99.90;;;;;;4147769;28;21024;-75
2022/10/20 03:53:07;;;;;;;3.80;3.40;;;19.00;99.90;;;;;;4147868;28;20669;-75
2022/10/20 03:55:11;;;;;;;3.42;3.00;;;19.00;99.90;;;;;;4142681;28;20217;-75
2022/10/20 03:57:13;;;;;;;3.38;3.03;;;19.00;99.90;;;;;;4141144;28;20469;-75
2022/10/20 03:59:16;;;;;;;3.17;2.83;;;19.00;99.90;;;;;;4147466;28;20263;-75
2022/10/20 04:01:22;;;;;;;3.85;3.45;;;19.00;99.90;;;;;;4142230;28;20241;-75
2022/10/20 04:03:25;;;;;;;3.97;3.58;;;19.00;99.90;;;;;;4148020;28;20255;-75
2022/10/20 04:05:27;;;;;;;3.63;3.33;;;19.00;99.90;;;;;;4147676;28;20220;-75
2022/10/20 04:07:29;;;;;;;4.05;3.40;;;18.90;99.90;;;;;;4141390;28;20283;-75
2022/10/20 04:09:31;;;;;;;3.75;3.40;;;19.00;99.90;;;;;;4145779;28;20280;-74
2022/10/20 04:11:35;;;;;;;3.53;3.20;;;19.00;99.90;;;;;;4147659;28;20594;-75
2022/10/20 04:13:37;;;;;;;4.10;3.65;;;19.00;99.90;;;;;;4143518;28;20213;-75
2022/10/20 04:15:40;;;;;;;3.70;3.40;;;19.00;99.90;;;;;;4147851;28;20287;-75
2022/10/20 04:17:42;;;;;;;4.93;3.50;;;19.00;99.90;;;;;;4145350;28;20224;-74
2022/10/20 04:19:44;;;;;;;2.97;2.70;;;18.90;99.90;;;;;;4144882;28;20221;-74
2022/10/20 04:21:46;;;;;;;3.50;3.20;;;19.00;99.90;;;;;;4146801;28;20217;-74
2022/10/20 04:23:49;;;;;;;5.60;3.20;;;18.90;99.90;;;;;;4144520;28;20205;-74
2022/10/20 04:25:51;;;;;;;3.67;3.38;;;19.00;99.90;;;;;;4152158;28;20275;-75
2022/10/20 04:27:55;;;;;;;3.55;3.13;;;18.90;99.90;;;;;;4150250;28;20225;-75
2022/10/20 04:29:57;;;;;;;3.30;2.95;;;18.90;99.90;;;;;;4142445;28;20226;-75
2022/10/20 04:31:59;;;;;;;4.07;3.08;;;18.90;99.90;;;;;;4146215;28;20241;-75
2022/10/20 04:34:01;;;;;;;3.30;3.00;;;18.90;99.90;;;;;;4145895;28;20621;-75
2022/10/20 04:36:06;;;;;;;3.55;3.25;;;18.90;99.90;;;;;;4142043;28;20669;-75
2022/10/20 04:38:09;;;;;;;3.75;3.17;;;18.90;99.90;;;;;;4144489;28;20279;-75
2022/10/20 04:40:12;;;;;;;3.85;3.45;;;18.90;99.90;;;;;;4145864;28;20268;-74
2022/10/20 04:42:14;;;;;;;3.40;2.85;;;18.90;99.90;;;;;;4142741;28;20287;-75
2022/10/20 04:44:18;;;;;;;3.72;3.40;;;18.90;99.90;;;;;;4145898;28;20287;-75
2022/10/20 04:46:20;;;;;;;3.67;3.28;;;18.90;99.90;;;;;;4143681;28;20267;-75
2022/10/20 04:48:22;;;;;;;3.33;3.00;;;18.90;99.90;;;;;;4148948;28;20240;-75
2022/10/20 04:50:25;;;;;;;3.20;2.92;;;18.90;99.90;;;;;;4150556;28;20471;-75
2022/10/20 04:52:31;;;;;;;4.03;3.13;;;18.90;99.90;;;;;;4143355;28;20245;-75
2022/10/20 04:54:33;;;;;;;4.05;3.20;;;19.00;99.90;;;;;;4145468;28;20271;-75
2022/10/20 04:56:35;;;;;;;3.53;3.22;;;19.00;99.90;;;;;;4139624;28;20638;-75
2022/10/20 04:58:37;;;;;;;3.28;2.97;;;18.90;99.90;;;;;;4141097;28;20316;-75
2022/10/20 05:00:41;;;;;;;4.00;3.30;;;18.90;99.90;;;;;;4145488;28;20241;-75
2022/10/20 05:02:43;;;;;;;3.60;3.30;;;18.90;99.90;;;;;;4145357;28;20221;-75
2022/10/20 05:04:46;;;;;;;3.90;3.10;;;18.90;99.90;;;;;;4141987;28;20259;-75
2022/10/20 05:06:49;;;;;;;3.63;3.20;;;18.90;99.90;;;;;;4145328;28;20268;-75
2022/10/20 05:08:54;;;;;;;3.30;3.00;;;18.90;99.90;;;;;;4145666;28;20213;-75
2022/10/20 05:10:56;;;;;;;3.67;3.38;;;18.90;99.90;;;;;;4148540;28;20271;-75
2022/10/20 05:12:58;;;;;;;3.78;3.45;;;18.90;99.90;;;;;;4144684;28;20291;-75
2022/10/20 05:15:01;;;;;;;3.22;2.92;;;18.90;99.90;;;;;;4145158;28;20267;-75
2022/10/20 05:17:04;;;;;;;3.50;3.20;;;18.90;99.90;;;;;;4140266;28;20222;-75
2022/10/20 05:19:07;;;;;;;3.20;2.90;;;18.90;99.90;;;;;;4144831;28;20271;-75
2022/10/20 05:21:11;;;;;;;3.88;2.92;;;18.90;99.90;;;;;;4144252;28;20279;-75
2022/10/20 05:23:13;;;;;;;4.00;3.58;;;18.90;99.90;;;;;;4146457;28;20279;-75
2022/10/20 05:25:15;;;;;;;3.38;3.08;;;18.90;99.90;;;;;;4144454;28;20228;-75
2022/10/20 05:27:18;;;;;;;3.80;3.40;;;18.90;99.90;;;;;;4140854;28;20213;-75
2022/10/20 05:29:20;;;;;;;3.00;2.70;;;18.90;99.90;;;;;;4148324;28;20217;-75
2022/10/20 05:31:23;;;;;;;3.78;3.30;;;18.90;99.90;;;;;;4144196;28;20701;-75
2022/10/20 05:33:27;;;;;;;5.40;3.42;;;18.90;99.90;;;;;;4139821;28;20237;-75
2022/10/20 05:35:29;;;;;;;3.53;3.22;;;18.90;99.90;;;;;;4141473;28;20225;-75
2022/10/20 05:37:32;;;;;;;3.70;3.40;;;18.90;99.90;;;;;;4143677;28;20307;-74
2022/10/20 05:39:34;;;;;;;5.25;3.70;;;18.90;99.90;;;;;;4141480;28;20681;-74
2022/10/20 05:41:36;;;;;;;3.40;3.10;;;18.90;99.90;;;;;;4148859;28;20225;-74
2022/10/20 05:43:39;;;;;;;4.75;3.08;;;18.90;99.90;;;;;;4143001;28;20634;-75
2022/10/20 05:45:41;;;;;;;3.08;2.78;;;18.90;99.90;;;;;;4142013;28;20251;-74
2022/10/20 05:47:43;;;;;;;3.47;3.08;;;18.90;99.90;;;;;;4145090;28;20213;-74
2022/10/20 05:49:48;;;;;;;3.38;3.08;;;18.90;99.90;;;;;;4145016;28;20264;-74
2022/10/20 05:51:50;;;;;;;3.22;2.90;;;18.90;99.90;;;;;;4147305;28;20300;-74
2022/10/20 05:53:54;;;;;;;3.30;3.00;;;18.90;99.90;;;;;;4144546;28;20622;-74
2022/10/20 05:56:03;;;;;;;3.40;3.10;;;18.90;99.90;;;;;;4143368;28;20279;-74
2022/10/20 05:58:05;;;;;;;3.53;3.22;;;18.90;99.90;;;;;;4145196;28;20238;-74
2022/10/20 06:00:08;;;;;;;3.60;3.25;;;18.90;99.90;;;;;;4144504;28;20245;-74
2022/10/20 06:02:11;;;;;;;3.10;2.80;;;18.90;99.90;;;;;;4140662;28;20661;-74
2022/10/20 06:04:15;;;;;;;2.88;2.63;;;18.90;99.90;;;;;;4149307;28;20274;-74
2022/10/20 06:06:21;;;;;;;3.65;3.20;;;19.00;99.90;;;;;;4145003;28;20232;-74
2022/10/20 06:08:23;;;;;;;3.65;3.28;;;18.90;99.90;;;;;;4141739;28;20217;-74
2022/10/20 06:10:26;;;;;;;3.20;2.80;;;18.90;99.90;;;;;;4144897;28;20217;-74
2022/10/20 06:12:28;;;;;;;3.20;2.90;;;18.90;99.90;;;;;;4144450;28;20659;-75
2022/10/20 06:14:30;;;;;;;2.85;2.65;;;19.00;99.90;;;;;;4144033;28;20213;-75
2022/10/20 06:16:33;;;;;;;3.60;3.13;;;18.90;99.90;;;;;;4145869;28;20217;-75
2022/10/20 06:18:37;;;;;;;3.35;3.03;;;19.00;99.90;;;;;;4144391;28;20226;-75
2022/10/20 06:20:40;;;;;;;3.47;3.17;;;18.90;99.90;;;;;;4139803;28;20259;-75
2022/10/20 06:22:44;;;;;;;2.80;2.47;;;19.00;99.90;;;;;;4143988;28;20360;-75
2022/10/20 06:24:47;;;;;;;3.00;2.70;;;18.90;99.90;;;;;;4144893;28;20228;-75
2022/10/20 06:26:50;;;;;;;3.38;2.85;;;18.90;99.90;;;;;;4147169;28;20225;-75
2022/10/20 06:28:55;;;;;;;3.33;2.88;;;18.90;99.90;;;;;;4144178;28;20224;-75
2022/10/20 06:30:57;;;;;;;2.92;2.72;;;19.00;99.90;;;;;;4144512;28;20247;-75
2022/10/20 06:32:59;;;;;;;3.00;2.78;;;19.00;99.90;;;;;;4145009;28;20241;-74
2022/10/20 06:35:01;;;;;;;3.38;2.70;;;18.90;99.90;;;;;;4144491;28;20657;-75
2022/10/20 06:37:04;;;;;;;3.05;2.75;;;18.90;99.90;;;;;;4141304;28;20217;-74
2022/10/20 06:39:10;;;;;;;3.30;3.00;;;19.00;99.90;;;;;;4144670;28;20220;-74
2022/10/20 06:41:14;;;;;;;4.25;3.25;;;18.90;99.90;;;;;;4144676;28;20696;-74
2022/10/20 06:43:17;;;;;;;3.85;3.03;;;18.90;99.90;;;;;;4135848;28;20245;-74
2022/10/20 06:45:19;;;;;;;3.80;3.25;;;18.90;99.90;;;;;;4142316;28;20224;-74
2022/10/20 06:47:21;;;;;;;3.03;2.78;;;18.90;99.90;;;;;;4144232;28;20221;-74
2022/10/20 06:49:24;;;;;;;2.88;2.60;;;19.00;99.90;;;;;;4141181;28;20225;-74
2022/10/20 06:51:26;;;;;;;3.17;2.72;;;19.00;99.90;;;;;;4143502;28;20243;-75
2022/10/20 06:53:30;;;;;;;2.72;2.53;;;18.90;99.90;;;;;;4142766;28;20283;-75
2022/10/20 06:55:33;;;;;;;3.33;2.83;;;18.90;99.90;;;;;;4138576;28;20248;-74
2022/10/20 06:57:36;;;;;;;4.95;2.67;;;19.00;99.90;;;;;;4145251;28;20624;-73
2022/10/20 06:59:38;;;;;;;4.20;2.75;;;19.00;99.90;;;;;;4144515;28;20756;-76
2022/10/20 07:01:41;;;;;;;2.60;2.40;;;19.00;99.90;;;;;;4137870;28;20233;-74
2022/10/20 07:03:44;;;;;;;2.85;2.60;;;19.10;99.90;;;;;;4141850;28;20624;-74
2022/10/20 07:05:47;;;;;;;3.30;2.92;;;19.10;99.90;;;;;;4145730;28;20217;-75
2022/10/20 07:07:52;;;;;;;3.60;2.90;;;19.10;99.90;;;;;;4140764;28;20351;-75
2022/10/20 07:09:55;;;;;;;3.10;2.70;;;19.20;99.90;;;;;;4138905;28;20324;-74
2022/10/20 07:11:58;;;;;;;3.28;2.95;;;19.10;99.90;;;;;;4143066;28;20629;-74
2022/10/20 07:14:01;;;;;;;5.00;2.90;;;19.20;99.90;;;;;;4139697;28;20260;-75
2022/10/20 07:16:05;;;;;;;2.78;2.50;;;19.20;99.90;;;;;;4141453;28;20217;-75
2022/10/20 07:18:08;;;;;;;3.38;2.67;;;19.30;99.90;;;;;;4154797;28;20216;-73
2022/10/20 07:20:10;;;;;;;2.83;2.63;;;19.30;99.90;;;;;;4140583;28;20264;-78
2022/10/20 07:22:13;;;;;;;3.20;2.90;;;19.40;99.90;;;;;;4143864;28;20222;-76
2022/10/20 07:24:15;;;;;;;2.85;2.65;;;19.30;99.90;;;;;;4140735;28;20209;-75
2022/10/20 07:26:20;;;;;;;3.28;2.85;;;19.30;99.90;;;;;;4139212;28;20217;-75
2022/10/20 07:28:23;;;;;;;3.20;2.60;;;19.30;99.90;;;;;;4138143;28;20209;-76
2022/10/20 07:30:26;;;;;;;3.15;2.85;;;19.30;99.90;;;;;;4148671;28;20319;-73
2022/10/20 07:32:28;;;;;;;5.07;2.60;;;19.30;99.90;;;;;;4137266;28;20272;-74
2022/10/20 07:34:30;;;;;;;2.95;2.65;;;19.30;99.90;;;;;;4136992;28;20287;-74
2022/10/20 07:36:34;;;;;;;3.13;2.80;;;19.40;99.90;;;;;;4134659;28;20217;-74
2022/10/20 07:38:36;;;;;;;3.58;2.50;;;19.40;99.90;;;;;;4138750;28;20213;-74
2022/10/20 07:40:39;;;;;;;3.17;2.88;;;19.40;99.90;;;;;;4138347;28;20217;-73
2022/10/20 07:42:41;;;;;;;2.90;2.65;;;19.40;99.90;;;;;;4134123;28;20275;-73
2022/10/20 07:44:45;;;;;;;3.65;2.80;;;19.50;99.90;;;;;;4135646;28;20256;-76
2022/10/20 07:46:47;;;;;;;6.97;3.20;;;19.50;99.90;;;;;;4140596;28;20221;-76
2022/10/20 07:48:50;;;;;;;2.72;2.47;;;19.50;99.90;;;;;;4136694;28;20272;-73
2022/10/20 07:50:52;;;;;;;2.92;2.50;;;19.50;99.90;;;;;;4133675;28;20740;-74
2022/10/20 07:52:54;;;;;;;3.97;2.80;;;19.50;99.90;;;;;;4142631;28;20282;-74
2022/10/20 07:54:57;;;;;;;4.22;2.65;;;19.60;99.90;;;;;;4142131;28;20236;-75
2022/10/20 07:57:01;;;;;;;3.60;2.70;;;19.60;99.90;;;;;;4137490;28;20270;-74
2022/10/20 07:59:04;;;;;;;4.40;2.70;;;19.60;99.90;;;;;;4133446;28;20225;-75
2022/10/20 08:01:08;;;;;;;4.35;2.85;;;19.60;99.90;;;;;;4138698;28;20241;-72
2022/10/20 08:03:11;;;;;;;3.10;2.80;;;19.50;99.90;;;;;;4136476;28;20280;-72
2022/10/20 08:05:13;;;;;;;3.13;2.80;;;19.60;99.90;;;;;;4145173;28;20634;-72
2022/10/20 08:07:18;;;;;;;3.58;3.03;;;19.60;99.90;;;;;;4141849;28;20218;-72
2022/10/20 08:09:21;;;;;;;3.00;2.70;;;19.70;99.90;;;;;;4141195;28;20275;-72
2022/10/20 08:11:23;;;;;;;3.55;2.80;;;19.70;99.90;;;;;;4140996;28;20229;-72
2022/10/20 08:13:25;;;;;;;3.60;2.53;;;19.70;99.90;;;;;;4138011;28;20221;-72
2022/10/20 08:15:28;;;;;;;3.47;2.50;;;19.70;99.90;;;;;;4138069;28;20225;-72
2022/10/20 08:17:31;;;;;;;3.33;2.78;;;19.80;99.90;;;;;;4138813;28;20221;-72
2022/10/20 08:19:33;;;;;;;3.13;2.47;;;19.70;99.90;;;;;;4139899;28;20604;-73
2022/10/20 08:21:36;;;;;;;4.35;2.70;;;19.70;99.90;;;;;;4138036;28;20696;-73
2022/10/20 08:23:39;;;;;;;3.42;2.70;;;19.80;99.90;;;;;;4143979;28;20229;-72
2022/10/20 08:25:42;;;;;;;4.75;2.80;;;19.80;99.90;;;;;;4135028;28;20247;-72
2022/10/20 08:27:44;;;;;;;4.53;2.83;;;19.80;99.90;;;;;;4141361;28;20240;-72
2022/10/20 08:29:46;;;;;;;3.88;2.80;;;19.80;99.90;;;;;;4149829;28;20217;-72
2022/10/20 08:31:49;;;;;;;3.60;2.72;;;19.80;99.90;;;;;;4133638;28;20272;-73
2022/10/20 08:33:52;;;;;;;2.88;2.67;;;19.80;99.90;;;;;;4137473;28;20229;-72
2022/10/20 08:35:54;;;;;;;3.17;2.50;;;19.80;99.90;;;;;;4144687;28;20256;-72
2022/10/20 08:37:57;;;;;;;4.88;2.47;;;19.90;99.90;;;;;;4138981;28;20225;-72
2022/10/20 08:40:02;;;;;;;4.22;2.70;;;19.90;99.90;;;;;;4141551;28;20283;-72
2022/10/20 08:42:04;;;;;;;8.00;3.45;;;20.00;99.90;;;;;;4136896;28;20220;-72
2022/10/20 08:44:07;;;;;;;7.07;3.00;;;20.00;99.90;;;;;;4139212;28;20213;-73
2022/10/20 08:46:12;;;;;;;6.63;2.72;;;19.90;99.90;;;;;;4113987;28;20267;-72
2022/10/20 08:48:20;;;;;;;8.00;2.90;;;20.00;99.90;;;;;;4139809;28;20217;-72
2022/10/20 08:50:26;;;;;;;4.88;2.65;;;20.10;99.90;;;;;;4151034;28;20223;-72
2022/10/20 08:52:29;;;;;;;3.30;2.97;;;20.20;99.90;;;;;;4141958;28;20221;-72
2022/10/20 08:54:34;;;;;;;5.50;2.83;;;20.20;99.90;;;;;;4136327;28;20307;-72
2022/10/20 08:56:36;;;;;;;2.50;2.30;;;20.30;99.90;;;;;;4135032;28;20205;-72
2022/10/20 08:58:42;;;;;;;6.03;2.85;;;20.40;99.90;;;;;;4138877;28;20771;-71
2022/10/20 09:00:45;;;;;;;4.57;2.70;;;20.40;99.90;;;;;;4144696;28;20241;-75
2022/10/20 09:02:49;;;;;;;3.75;2.60;;;20.40;99.90;;;;;;4140146;28;20264;-75
2022/10/20 09:04:55;;;;;;;3.28;2.50;;;20.60;99.90;;;;;;4146985;28;20274;-74
2022/10/20 09:07:04;;;;;;;3.05;2.75;;;20.50;99.90;;;;;;4142350;28;20221;-75
2022/10/20 09:09:06;;;;;;;3.45;2.60;;;20.60;99.90;;;;;;4125127;28;20204;-75
2022/10/20 09:11:15;;;;;;;13.38;2.75;;;20.60;99.90;;;;;;4147929;28;20699;-77
2022/10/20 09:13:22;;;;;;;3.97;2.85;;;20.50;99.90;;;;;;4134393;28;20221;-74
2022/10/20 09:15:27;;;;;;;3.53;2.50;;;20.50;99.90;;;;;;4143411;28;20237;-73
2022/10/20 09:17:29;;;;;;;5.82;2.67;;;20.60;99.90;;;;;;4141432;28;20271;-73
2022/10/20 09:19:32;;;;;;;2.67;2.47;;;20.60;99.90;;;;;;4140021;28;20653;-73
2022/10/20 09:21:38;;;;;;;5.15;2.90;;;20.60;99.90;;;;;;4143276;28;20217;-74
2022/10/20 09:23:44;;;;;;;11.57;3.13;;;20.70;99.90;;;;;;4139726;28;20221;-74
2022/10/20 09:25:48;;;;;;;6.35;2.78;;;20.60;99.90;;;;;;4136497;28;20217;-74
2022/10/20 09:27:53;;;;;;;3.40;2.78;;;20.60;99.90;;;;;;4144214;28;20218;-73
2022/10/20 09:29:55;;;;;;;6.32;3.17;;;20.70;99.90;;;;;;4143081;28;20686;-75
2022/10/20 09:31:58;;;;;;;3.13;2.80;;;20.70;99.90;;;;;;4136454;28;20614;-74
2022/10/20 09:34:00;;;;;;;5.85;2.83;;;20.60;99.90;;;;;;4136128;28;20229;-74
2022/10/20 09:36:05;;;;;;;7.38;2.72;;;20.70;99.90;;;;;;4137786;28;20268;-74
2022/10/20 09:38:18;;;;;;;3.13;2.63;;;20.80;99.90;;;;;;4144831;28;20213;-73
2022/10/20 09:40:25;;;;;;;4.80;2.47;;;20.80;99.90;;;;;;4139135;28;20358;-73
2022/10/20 09:42:30;;;;;;;3.75;2.55;;;20.80;99.90;;;;;;4143030;28;20735;-74
2022/10/20 09:44:48;;;;;;;4.13;2.70;;;20.80;99.90;;;;;;4139510;28;20275;-75
2022/10/20 09:46:52;;;;;;;4.15;3.33;;;20.80;99.90;;;;;;4126763;28;20283;-76
2022/10/20 09:48:55;;;;;;;2.92;2.55;;;20.80;99.90;;;;;;4139924;28;20217;-74
2022/10/20 09:50:58;;;;;;;4.03;2.55;;;20.70;99.90;;;;;;4145819;28;20209;-76
2022/10/20 09:53:04;;;;;;;4.72;3.10;;;20.80;99.90;;;;;;4141674;28;20248;-76
2022/10/20 09:55:20;;;;;;;5.90;2.70;;;20.90;99.90;;;;;;4135282;28;20240;-74
2022/10/20 09:57:24;;;;;;;3.60;3.00;;;20.80;99.90;;;;;;4133507;28;20280;-74
2022/10/20 09:59:32;;;;;;;4.57;3.28;;;20.90;99.90;;;;;;4140476;28;20248;-74
2022/10/20 10:01:34;;;;;;;5.25;3.10;;;20.90;99.90;;;;;;4139804;28;20286;-74
2022/10/20 10:03:40;;;;;;;3.78;2.78;;;20.80;99.90;;;;;;4139999;28;20280;-76
2022/10/20 10:05:42;;;;;;;4.40;2.95;;;20.80;99.90;;;;;;4132738;28;20688;-77
2022/10/20 10:07:45;;;;;;;3.90;2.90;;;20.90;99.90;;;;;;4142380;28;20213;-75
2022/10/20 10:09:55;;;;;;;5.80;3.13;;;20.90;99.90;;;;;;4144730;28;20658;-77
2022/10/20 10:12:00;;;;;;;3.65;3.17;;;21.00;99.90;;;;;;4139797;28;20212;-75
2022/10/20 10:14:04;;;;;;;3.78;2.60;;;20.90;99.90;;;;;;4135316;28;20724;-76
2022/10/20 10:16:09;;;;;;;7.00;3.35;;;20.80;99.90;;;;;;4135389;28;20241;-73
2022/10/20 10:18:13;;;;;;;5.38;3.00;;;20.90;99.90;;;;;;4141333;28;20275;-73
2022/10/20 10:20:32;;;;;;;3.15;2.80;;;20.80;99.90;;;;;;4137540;28;20268;-74
2022/10/20 10:22:35;;;;;;;4.15;2.97;;;20.90;99.90;;;;;;4141450;28;20644;-74
2022/10/20 10:24:45;;;;;;;4.93;3.20;;;20.90;99.90;;;;;;4136116;28;20213;-75
2022/10/20 10:26:52;;;;;;;4.72;3.17;;;21.10;99.90;;;;;;4145349;28;20263;-75
2022/10/20 10:28:58;;;;;;;4.47;2.90;;;21.00;99.90;;;;;;4145189;28;20221;-74
2022/10/20 10:31:21;;;;;;;5.70;2.83;;;20.90;99.90;;;;;;4140525;28;20258;-74
2022/10/20 10:33:27;;;;;;;3.65;2.97;;;20.90;99.90;;;;;;4145576;28;20609;-76
2022/10/20 10:35:33;;;;;;;3.80;2.83;;;20.80;99.90;;;;;;4140807;28;20709;-74
2022/10/20 10:37:38;;;;;;;7.13;3.38;;;20.90;99.90;;;;;;4147961;28;20220;-77
2022/10/20 10:39:41;;;;;;;4.45;2.72;;;20.90;99.90;;;;;;4142810;28;20221;-75
2022/10/20 10:42:10;;;;;;;5.93;3.22;;;20.90;99.90;;;;;;4143172;28;20218;-75
2022/10/20 10:44:18;;;;;;;3.20;2.80;;;21.00;99.90;;;;;;4138588;28;20209;-76
2022/10/20 10:46:27;;;;;;;5.45;2.88;;;21.10;99.90;;;;;;4140477;28;20279;-75
2022/10/20 10:49:02;;;;;;;4.00;3.00;;;21.10;99.90;;;;;;4145291;28;20298;-76